createdAt,value
2023-02-28T00:00:38.150Z,6.38
2023-02-28T00:03:04.990Z,4.45
2023-02-28T00:05:32.480Z,4.30
2023-02-28T00:07:59.293Z,5.07
2023-02-28T00:10:29.296Z,5.53
2023-02-28T00:13:00.334Z,3.87
2023-02-28T00:15:27.264Z,8.47
2023-02-28T00:17:54.297Z,5.28
2023-02-28T00:20:21.286Z,4.20
2023-02-28T00:22:50.797Z,7.57
2023-02-28T00:25:23.452Z,6.93
2023-02-28T00:27:50.801Z,4.50
2023-02-28T00:30:20.620Z,3.50
2023-02-28T00:32:47.434Z,4.88
2023-02-28T00:35:14.944Z,5.38
2023-02-28T00:37:41.877Z,6.17
2023-02-28T00:40:10.251Z,5.40
2023-02-28T00:42:37.526Z,3.70
2023-02-28T00:45:05.557Z,5.50
2023-02-28T00:47:32.838Z,5.15
2023-02-28T00:50:00.952Z,5.72
2023-02-28T00:52:27.856Z,5.45
2023-02-28T00:54:54.902Z,5.00
2023-02-28T00:57:21.931Z,4.80
2023-02-28T00:59:48.905Z,5.20
2023-02-28T01:02:15.874Z,7.72
2023-02-28T01:04:42.733Z,6.07
2023-02-28T01:07:10.411Z,7.00
2023-02-28T01:09:37.253Z,8.40
2023-02-28T01:12:04.303Z,5.97
2023-02-28T01:14:31.140Z,5.38
2023-02-28T01:16:57.981Z,6.20
2023-02-28T01:19:24.757Z,8.02
2023-02-28T01:21:51.603Z,4.88
2023-02-28T01:24:18.465Z,6.78
2023-02-28T01:26:45.269Z,6.80
2023-02-28T01:29:12.087Z,6.55
2023-02-28T01:31:38.961Z,7.05
2023-02-28T01:34:05.767Z,5.07
2023-02-28T01:36:32.580Z,5.60
2023-02-28T01:38:59.344Z,5.57
2023-02-28T01:41:29.857Z,8.10
2023-02-28T01:44:00.333Z,6.50
2023-02-28T01:46:27.401Z,5.18
2023-02-28T01:49:07.176Z,7.80
2023-02-28T01:51:50.351Z,6.27
2023-02-28T01:54:25.018Z,5.05
2023-02-28T01:57:00.133Z,6.03
2023-02-28T01:59:34.179Z,8.85
2023-02-28T02:02:02.438Z,7.05
2023-02-28T02:04:37.694Z,7.25
2023-02-28T02:07:05.133Z,7.63
2023-02-28T02:09:31.940Z,7.15
2023-02-28T02:12:00.571Z,5.55
2023-02-28T02:14:49.740Z,7.10
2023-02-28T02:17:28.317Z,4.50
2023-02-28T02:20:08.948Z,5.35
2023-02-28T02:22:44.410Z,6.75
2023-02-28T02:25:23.594Z,6.53
2023-02-28T02:28:19.401Z,20.55
2023-02-28T02:31:10.178Z,9.55
2023-02-28T02:33:46.227Z,7.00
2023-02-28T02:36:35.249Z,5.13
2023-02-28T02:39:05.163Z,7.63
2023-02-28T02:41:53.064Z,4.28
2023-02-28T02:44:30.888Z,5.00
2023-02-28T02:47:19.954Z,5.47
2023-02-28T02:49:55.220Z,5.15
2023-02-28T02:52:30.966Z,4.47
2023-02-28T02:55:00.006Z,5.47
2023-02-28T02:57:49.739Z,6.53
2023-02-28T03:00:24.198Z,5.32
2023-02-28T03:02:55.367Z,5.90
2023-02-28T03:05:33.450Z,6.35
2023-02-28T03:08:00.281Z,7.07
2023-02-28T03:10:40.942Z,6.47
2023-02-28T03:13:38.593Z,8.10
2023-02-28T03:16:30.072Z,4.85
2023-02-28T03:19:19.222Z,5.38
2023-02-28T03:22:15.148Z,6.03
2023-02-28T03:25:23.343Z,4.75
2023-02-28T03:28:08.261Z,4.55
2023-02-28T03:30:56.914Z,6.45
2023-02-28T03:33:35.806Z,4.10
2023-02-28T03:36:18.790Z,4.00
2023-02-28T03:38:53.557Z,4.90
2023-02-28T03:41:38.809Z,7.90
2023-02-28T03:44:17.565Z,5.78
2023-02-28T03:46:52.002Z,8.13
2023-02-28T03:49:25.850Z,4.00
2023-02-28T03:51:55.201Z,5.03
2023-02-28T03:54:29.956Z,5.10
2023-02-28T03:57:27.061Z,6.50
2023-02-28T04:00:21.979Z,4.22
2023-02-28T04:02:48.863Z,5.80
2023-02-28T04:05:15.716Z,4.75
2023-02-28T04:07:42.475Z,4.90
2023-02-28T04:10:10.677Z,4.82
2023-02-28T04:12:37.491Z,4.50
2023-02-28T04:15:04.680Z,3.97
2023-02-28T04:17:31.440Z,4.35
2023-02-28T04:19:58.219Z,6.13
2023-02-28T04:22:25.044Z,8.02
2023-02-28T04:24:51.791Z,5.28
2023-02-28T04:27:18.541Z,7.60
2023-02-28T04:29:45.371Z,4.90
2023-02-28T04:32:12.435Z,4.63
2023-02-28T04:34:39.858Z,3.95
2023-02-28T04:37:13.195Z,5.50
2023-02-28T04:39:41.597Z,4.68
2023-02-28T04:42:08.498Z,5.10
2023-02-28T04:44:35.267Z,3.35
2023-02-28T04:47:02.026Z,3.42
2023-02-28T04:49:28.791Z,4.85
2023-02-28T04:51:55.562Z,4.85
2023-02-28T04:54:22.352Z,3.33
2023-02-28T04:56:49.163Z,3.77
2023-02-28T04:59:15.942Z,3.60
2023-02-28T05:01:47.267Z,4.97
2023-02-28T05:04:14.166Z,4.80
2023-02-28T05:06:41.243Z,5.03
2023-02-28T05:09:08.006Z,7.85
2023-02-28T05:11:35.591Z,5.95
2023-02-28T05:14:04.257Z,5.72
2023-02-28T05:16:32.000Z,4.43
2023-02-28T05:18:59.348Z,4.93
2023-02-28T05:21:36.194Z,5.40
2023-02-28T05:24:06.364Z,4.40
2023-02-28T05:26:36.756Z,5.18
2023-02-28T05:29:03.690Z,3.88
2023-02-28T05:31:30.909Z,4.90
2023-02-28T05:33:57.879Z,4.63
2023-02-28T05:36:25.073Z,5.30
2023-02-28T05:38:52.480Z,5.80
2023-02-28T05:41:21.019Z,3.67
2023-02-28T05:43:48.828Z,5.00
2023-02-28T05:46:16.078Z,5.90
2023-02-28T05:48:44.164Z,6.00
2023-02-28T05:51:11.097Z,5.68
2023-02-28T05:53:37.986Z,6.93
2023-02-28T05:56:05.785Z,6.80
2023-02-28T05:58:32.557Z,5.70
2023-02-28T06:01:21.520Z,5.93
2023-02-28T06:03:48.338Z,19.88
2023-02-28T06:06:15.118Z,12.77
2023-02-28T06:08:41.940Z,10.07
2023-02-28T06:11:08.706Z,5.97
2023-02-28T06:13:35.487Z,7.50
2023-02-28T06:16:02.887Z,6.07
2023-02-28T06:18:29.632Z,5.70
2023-02-28T06:20:57.183Z,5.10
2023-02-28T06:23:24.049Z,6.82
2023-02-28T06:25:50.785Z,5.15
2023-02-28T06:28:17.602Z,5.90
2023-02-28T06:30:46.438Z,5.60
2023-02-28T06:33:13.370Z,5.83
2023-02-28T06:35:40.174Z,7.35
2023-02-28T06:38:07.074Z,5.60
2023-02-28T06:40:33.810Z,6.57
2023-02-28T06:43:00.872Z,7.57
2023-02-28T06:45:27.656Z,5.90
2023-02-28T06:47:54.406Z,6.63
2023-02-28T06:50:21.291Z,5.55
2023-02-28T06:52:48.237Z,7.25
2023-02-28T06:55:15.147Z,6.47
2023-02-28T06:57:41.915Z,5.95
2023-02-28T07:00:10.435Z,7.45
2023-02-28T07:02:38.223Z,6.60
2023-02-28T07:05:06.287Z,6.23
2023-02-28T07:07:33.277Z,6.20
2023-02-28T07:10:00.277Z,8.37
2023-02-28T07:12:27.043Z,7.47
2023-02-28T07:14:53.847Z,15.85
2023-02-28T07:17:20.722Z,9.60
2023-02-28T07:19:47.476Z,8.50
2023-02-28T07:22:15.851Z,7.85
2023-02-28T07:24:42.934Z,6.50
2023-02-28T07:27:09.739Z,7.97
2023-02-28T07:29:36.545Z,7.53
2023-02-28T07:32:03.385Z,7.25
2023-02-28T07:34:30.400Z,5.63
2023-02-28T07:36:57.141Z,6.10
2023-02-28T07:39:24.107Z,6.40
2023-02-28T07:41:50.840Z,6.80
2023-02-28T07:44:17.595Z,6.68
2023-02-28T07:46:44.462Z,6.35
2023-02-28T07:49:11.281Z,8.23
2023-02-28T07:51:38.032Z,7.22
2023-02-28T07:54:05.101Z,9.70
2023-02-28T07:56:32.244Z,7.70
2023-02-28T07:58:59.209Z,7.20
2023-02-28T08:01:26.844Z,7.65
2023-02-28T08:03:53.721Z,15.50
2023-02-28T08:06:22.976Z,35.40
2023-02-28T08:08:50.300Z,19.23
2023-02-28T08:11:18.524Z,21.80
2023-02-28T08:13:46.342Z,9.43
2023-02-28T08:16:15.190Z,7.07
2023-02-28T08:18:42.176Z,5.97
2023-02-28T08:21:11.034Z,6.30
2023-02-28T08:23:38.108Z,5.17
2023-02-28T08:26:05.750Z,6.85
2023-02-28T08:28:32.746Z,6.00
2023-02-28T08:30:59.829Z,27.67
2023-02-28T08:33:27.960Z,23.55
2023-02-28T08:35:57.734Z,28.90
2023-02-28T08:38:24.983Z,7.90
2023-02-28T08:40:57.890Z,6.00
2023-02-28T08:43:24.681Z,5.45
2023-02-28T08:45:55.682Z,6.53
2023-02-28T08:48:22.497Z,6.28
2023-02-28T08:51:07.276Z,5.47
2023-02-28T08:53:35.272Z,5.93
2023-02-28T08:56:15.070Z,7.05
2023-02-28T08:58:41.909Z,15.30
2023-02-28T09:01:21.600Z,12.68
2023-02-28T09:03:49.958Z,7.60
2023-02-28T09:06:19.126Z,5.93
2023-02-28T09:08:46.312Z,5.65
2023-02-28T09:11:13.618Z,7.30
2023-02-28T09:13:41.050Z,9.55
2023-02-28T09:16:11.624Z,11.88
2023-02-28T09:18:39.138Z,9.97
2023-02-28T09:21:07.721Z,9.15
2023-02-28T09:23:35.069Z,7.10
2023-02-28T09:26:02.062Z,9.73
2023-02-28T09:28:28.817Z,8.10
2023-02-28T09:30:55.786Z,8.10
2023-02-28T09:33:23.223Z,7.18
2023-02-28T09:35:51.026Z,6.80
2023-02-28T09:38:18.914Z,5.00
2023-02-28T09:40:51.662Z,6.05
2023-02-28T09:43:21.047Z,4.50
2023-02-28T09:46:03.696Z,5.90
2023-02-28T09:48:41.175Z,6.20
2023-02-28T09:51:29.590Z,5.40
2023-02-28T09:54:01.352Z,5.30
2023-02-28T09:56:34.615Z,6.43
2023-02-28T09:59:11.213Z,6.35
2023-02-28T10:01:50.096Z,5.47
2023-02-28T10:04:19.673Z,5.50
2023-02-28T10:06:51.067Z,5.60
2023-02-28T10:09:26.512Z,5.50
2023-02-28T10:11:58.434Z,6.28
2023-02-28T10:14:29.422Z,9.25
2023-02-28T10:17:09.694Z,13.57
2023-02-28T10:19:45.457Z,8.07
2023-02-28T10:22:23.043Z,5.60
2023-02-28T10:24:55.585Z,5.15
2023-02-28T10:27:29.103Z,8.05
2023-02-28T10:29:58.709Z,5.93
2023-02-28T10:32:29.907Z,6.43
2023-02-28T10:35:11.817Z,7.00
2023-02-28T10:37:39.577Z,5.22
2023-02-28T10:40:25.450Z,5.93
2023-02-28T10:42:59.513Z,7.20
2023-02-28T10:45:27.713Z,7.13
2023-02-28T10:47:56.129Z,5.75
2023-02-28T10:50:34.721Z,6.72
2023-02-28T10:53:20.165Z,5.97
2023-02-28T10:55:56.997Z,6.30
2023-02-28T10:58:26.457Z,6.20
2023-02-28T11:00:54.247Z,6.07
2023-02-28T11:03:33.340Z,18.17
2023-02-28T11:06:07.449Z,23.15
2023-02-28T11:08:34.766Z,8.30
2023-02-28T11:11:06.620Z,6.50
2023-02-28T11:13:37.310Z,6.60
2023-02-28T11:16:08.228Z,7.07
2023-02-28T11:18:55.332Z,6.63
2023-02-28T11:21:33.100Z,5.35
2023-02-28T11:24:06.615Z,5.95
2023-02-28T11:26:47.136Z,5.65
2023-02-28T11:29:24.457Z,5.65
2023-02-28T11:32:03.632Z,6.60
2023-02-28T11:34:31.021Z,5.80
2023-02-28T11:37:00.121Z,11.02
2023-02-28T11:39:28.054Z,14.20
2023-02-28T11:42:35.921Z,14.55
2023-02-28T11:45:28.434Z,12.07
2023-02-28T11:48:13.241Z,15.15
2023-02-28T11:51:06.215Z,9.00
2023-02-28T11:54:06.478Z,6.78
2023-02-28T11:56:48.890Z,7.63
2023-02-28T11:59:34.114Z,6.40
2023-02-28T12:02:25.658Z,6.72
2023-02-28T12:04:58.238Z,6.80
2023-02-28T12:07:32.976Z,10.02
2023-02-28T12:10:17.098Z,7.03
2023-02-28T12:12:55.970Z,6.68
2023-02-28T12:15:35.789Z,5.38
2023-02-28T12:18:05.624Z,6.68
2023-02-28T12:20:43.211Z,6.03
2023-02-28T12:23:31.606Z,5.97
2023-02-28T12:26:07.401Z,6.90
2023-02-28T12:28:43.145Z,7.30
2023-02-28T12:31:27.348Z,9.75
2023-02-28T12:34:26.577Z,6.15
2023-02-28T12:36:57.009Z,5.72
2023-02-28T12:39:49.865Z,5.90
2023-02-28T12:42:26.107Z,6.40
2023-02-28T12:45:03.038Z,7.93
2023-02-28T12:47:29.898Z,6.20
2023-02-28T12:50:09.168Z,5.55
2023-02-28T12:52:53.940Z,6.18
2023-02-28T12:55:51.052Z,4.83
2023-02-28T12:58:31.678Z,5.30
2023-02-28T13:01:17.033Z,5.05
2023-02-28T13:04:25.588Z,7.50
2023-02-28T13:07:09.596Z,4.90
2023-02-28T13:09:36.690Z,6.72
2023-02-28T13:12:14.663Z,7.25
2023-02-28T13:14:42.087Z,10.43
2023-02-28T13:17:08.828Z,8.18
2023-02-28T13:20:00.267Z,9.90
2023-02-28T13:22:26.992Z,7.38
2023-02-28T13:24:57.717Z,6.97
2023-02-28T13:27:24.437Z,6.75
2023-02-28T13:29:53.793Z,6.93
2023-02-28T13:32:30.424Z,7.00
2023-02-28T13:34:57.178Z,8.52
2023-02-28T13:37:23.920Z,6.40
2023-02-28T13:39:53.591Z,8.05
2023-02-28T13:42:43.072Z,6.72
2023-02-28T13:45:12.790Z,6.05
2023-02-28T13:47:44.159Z,8.35
2023-02-28T13:50:31.883Z,6.65
2023-02-28T13:53:14.012Z,10.18
2023-02-28T13:56:20.212Z,6.93
2023-02-28T13:58:59.907Z,7.97
2023-02-28T14:02:00.923Z,8.32
2023-02-28T14:04:33.951Z,9.25
2023-02-28T14:07:01.869Z,7.00
2023-02-28T14:09:33.880Z,9.18
2023-02-28T14:13:04.844Z,6.65
2023-02-28T14:15:39.560Z,5.28
2023-02-28T14:18:25.018Z,7.72
2023-02-28T14:21:10.513Z,6.43
2023-02-28T14:23:45.973Z,6.75
2023-02-28T14:26:15.415Z,6.80
2023-02-28T14:29:02.879Z,8.00
2023-02-28T14:31:55.121Z,7.17
2023-02-28T14:34:30.607Z,11.33
2023-02-28T14:37:02.341Z,8.05
2023-02-28T14:39:30.100Z,9.05
2023-02-28T14:41:57.446Z,9.18
2023-02-28T14:44:26.722Z,10.07
2023-02-28T14:46:57.783Z,10.65
2023-02-28T14:49:30.524Z,9.90
2023-02-28T14:52:18.089Z,6.40
2023-02-28T14:54:45.484Z,7.15
2023-02-28T14:57:33.557Z,8.02
2023-02-28T15:00:01.636Z,16.77
2023-02-28T15:02:34.765Z,5.10
2023-02-28T15:05:23.277Z,5.30
2023-02-28T15:08:12.395Z,7.03
2023-02-28T15:10:40.402Z,4.75
2023-02-28T15:13:12.101Z,4.32
2023-02-28T15:16:03.789Z,11.02
2023-02-28T15:18:45.785Z,6.50
2023-02-28T15:21:17.872Z,5.80
2023-02-28T15:23:51.081Z,5.82
2023-02-28T15:26:22.019Z,4.65
2023-02-28T15:28:58.719Z,4.25
2023-02-28T15:31:43.786Z,4.13
2023-02-28T15:34:26.479Z,4.38
2023-02-28T15:36:55.374Z,3.70
2023-02-28T15:39:25.697Z,4.30
2023-02-28T15:41:52.721Z,5.37
2023-02-28T15:44:26.717Z,4.40
2023-02-28T15:47:27.478Z,5.25
2023-02-28T15:49:58.701Z,7.57
2023-02-28T15:52:40.215Z,4.30
2023-02-28T15:55:28.506Z,7.50
2023-02-28T15:58:00.613Z,4.13
2023-02-28T16:00:30.544Z,7.47
2023-02-28T16:02:57.459Z,7.88
2023-02-28T16:05:28.703Z,5.80
2023-02-28T16:08:16.456Z,5.25
2023-02-28T16:10:43.303Z,3.90
2023-02-28T16:13:12.977Z,4.93
2023-02-28T16:15:43.656Z,9.45
2023-02-28T16:18:14.430Z,28.80
2023-02-28T16:20:41.622Z,27.52
2023-02-28T16:23:08.500Z,28.52
2023-02-28T16:25:41.574Z,16.00
2023-02-28T16:28:30.062Z,15.45
2023-02-28T16:30:56.905Z,11.18
2023-02-28T16:33:23.839Z,6.20
2023-02-28T16:35:51.067Z,3.72
2023-02-28T16:38:17.869Z,3.92
2023-02-28T16:40:45.231Z,3.00
2023-02-28T16:43:18.792Z,3.80
2023-02-28T16:45:46.350Z,4.20
2023-02-28T16:48:16.130Z,2.90
2023-02-28T16:50:43.986Z,4.75
2023-02-28T16:53:11.028Z,3.72
2023-02-28T16:55:38.347Z,3.40
2023-02-28T16:58:05.622Z,4.43
2023-02-28T17:00:34.049Z,3.55
2023-02-28T17:03:06.464Z,4.25
2023-02-28T17:05:38.889Z,3.53
2023-02-28T17:08:05.695Z,3.15
2023-02-28T17:10:32.584Z,3.50
2023-02-28T17:13:12.897Z,3.30
2023-02-28T17:15:42.222Z,3.75
2023-02-28T17:18:14.811Z,3.40
2023-02-28T17:20:41.625Z,3.47
2023-02-28T17:23:08.479Z,4.20
2023-02-28T17:25:35.274Z,7.03
2023-02-28T17:28:02.063Z,3.55
2023-02-28T17:30:28.930Z,3.63
2023-02-28T17:32:57.164Z,4.07
2023-02-28T17:35:24.747Z,4.65
2023-02-28T17:37:51.773Z,4.60
2023-02-28T17:40:22.335Z,3.20
2023-02-28T17:42:49.206Z,3.55
2023-02-28T17:45:16.702Z,5.25
2023-02-28T17:47:47.743Z,5.18
2023-02-28T17:50:17.830Z,4.40
2023-02-28T17:52:44.598Z,3.85
2023-02-28T17:55:11.710Z,3.03
2023-02-28T17:57:38.584Z,4.45
2023-02-28T18:00:06.544Z,4.03
2023-02-28T18:02:33.833Z,5.37
2023-02-28T18:05:00.634Z,4.72
2023-02-28T18:07:27.399Z,3.78
2023-02-28T18:09:54.247Z,2.78
2023-02-28T18:12:21.016Z,3.40
2023-02-28T18:14:47.783Z,3.60
2023-02-28T18:17:14.532Z,3.72
2023-02-28T18:19:41.341Z,3.65
2023-02-28T18:22:08.129Z,4.00
2023-02-28T18:24:35.250Z,3.00
2023-02-28T18:27:02.303Z,4.75
2023-02-28T18:29:29.191Z,4.05
2023-02-28T18:31:57.311Z,8.43
2023-02-28T18:34:25.226Z,7.45
2023-02-28T18:36:52.809Z,3.30
2023-02-28T18:39:20.084Z,4.90
2023-02-28T18:41:46.919Z,8.60
2023-02-28T18:44:19.485Z,2.95
2023-02-28T18:46:47.855Z,3.27
2023-02-28T18:49:14.717Z,3.47
2023-02-28T18:51:41.484Z,3.10
2023-02-28T18:54:08.258Z,3.00
2023-02-28T18:56:34.998Z,2.17
2023-02-28T18:59:01.770Z,3.00
2023-02-28T19:01:30.172Z,3.30
2023-02-28T19:03:58.231Z,3.20
2023-02-28T19:06:24.995Z,14.65
2023-02-28T19:08:56.434Z,17.63
2023-02-28T19:11:24.053Z,7.15
2023-02-28T19:13:51.095Z,4.28
2023-02-28T19:16:19.509Z,3.20
2023-02-28T19:18:46.344Z,2.88
2023-02-28T19:21:15.932Z,2.70
2023-02-28T19:23:42.815Z,3.97
2023-02-28T19:26:15.707Z,3.20
2023-02-28T19:28:42.849Z,3.63
2023-02-28T19:31:18.523Z,3.58
2023-02-28T19:33:45.903Z,2.77
2023-02-28T19:36:16.427Z,2.63
2023-02-28T19:38:43.425Z,3.28
2023-02-28T19:41:12.621Z,2.67
2023-02-28T19:43:39.471Z,3.10
2023-02-28T19:46:06.703Z,3.50
2023-02-28T19:48:33.599Z,2.25
2023-02-28T19:51:04.019Z,3.25
2023-02-28T19:53:32.808Z,4.68
2023-02-28T19:56:00.525Z,2.97
2023-02-28T19:58:28.072Z,4.40
2023-02-28T20:00:54.962Z,11.80
2023-02-28T20:03:22.279Z,12.33
2023-02-28T20:06:03.518Z,3.55
2023-02-28T20:08:30.481Z,2.45
2023-02-28T20:11:03.496Z,1.98
2023-02-28T20:13:30.409Z,3.37
2023-02-28T20:16:00.149Z,3.60
2023-02-28T20:18:26.960Z,4.15
2023-02-28T20:20:53.953Z,3.20
2023-02-28T20:23:20.770Z,5.15
2023-02-28T20:25:47.529Z,3.13
2023-02-28T20:28:14.272Z,3.58
2023-02-28T20:30:41.051Z,2.70
2023-02-28T20:33:07.900Z,2.83
2023-02-28T20:35:34.754Z,2.80
2023-02-28T20:38:01.563Z,2.50
2023-02-28T20:40:28.429Z,2.93
2023-02-28T20:42:55.319Z,3.03
2023-02-28T20:45:22.118Z,2.70
2023-02-28T20:47:48.913Z,3.10
2023-02-28T20:50:15.734Z,3.47
2023-02-28T20:52:42.541Z,3.30
2023-02-28T20:55:09.401Z,3.53
2023-02-28T20:57:36.907Z,11.43
2023-02-28T21:00:04.573Z,8.43
2023-02-28T21:02:31.416Z,5.90
2023-02-28T21:04:58.239Z,4.95
2023-02-28T21:07:25.048Z,4.40
2023-02-28T21:09:53.948Z,4.75
2023-02-28T21:12:20.714Z,3.13
2023-02-28T21:14:47.749Z,2.80
2023-02-28T21:17:14.570Z,2.70
2023-02-28T21:19:41.328Z,3.40
2023-02-28T21:22:08.078Z,3.13
2023-02-28T21:24:34.825Z,2.25
2023-02-28T21:27:01.579Z,2.10
2023-02-28T21:29:28.328Z,3.10
2023-02-28T21:31:55.139Z,2.50
2023-02-28T21:34:22.016Z,2.58
2023-02-28T21:36:48.763Z,3.10
2023-02-28T21:39:24.114Z,2.60
2023-02-28T21:41:51.134Z,2.60
2023-02-28T21:44:18.139Z,3.17
2023-02-28T21:46:50.215Z,2.78
2023-02-28T21:49:17.085Z,3.65
2023-02-28T21:51:44.726Z,3.55
2023-02-28T21:54:11.668Z,5.20
2023-02-28T21:56:38.985Z,3.70
2023-02-28T21:59:06.464Z,4.55
2023-02-28T22:01:43.875Z,2.90
2023-02-28T22:04:15.585Z,2.70
2023-02-28T22:06:44.977Z,4.10
2023-02-28T22:09:11.744Z,2.90
2023-02-28T22:11:39.504Z,4.30
2023-02-28T22:14:07.220Z,3.03
2023-02-28T22:16:49.469Z,2.75
2023-02-28T22:19:18.027Z,3.90
2023-02-28T22:21:44.816Z,4.00
2023-02-28T22:24:11.593Z,3.75
2023-02-28T22:26:38.418Z,4.47
2023-02-28T22:29:05.299Z,3.13
2023-02-28T22:31:34.416Z,4.00
2023-02-28T22:34:07.350Z,3.60
2023-02-28T22:36:34.857Z,4.15
2023-02-28T22:39:02.070Z,4.70
2023-02-28T22:41:29.283Z,4.63
2023-02-28T22:44:02.204Z,5.25
2023-02-28T22:46:31.586Z,5.25
2023-02-28T22:48:59.687Z,3.35
2023-02-28T22:51:27.260Z,4.20
2023-02-28T22:53:56.845Z,3.03
2023-02-28T22:56:25.609Z,4.80
2023-02-28T22:58:54.549Z,3.40
2023-02-28T23:01:23.506Z,4.20
2023-02-28T23:03:50.856Z,7.00
2023-02-28T23:06:23.421Z,4.80
2023-02-28T23:08:52.051Z,3.13
2023-02-28T23:11:24.752Z,3.83
2023-02-28T23:13:51.798Z,4.65
2023-02-28T23:16:18.556Z,3.42
2023-02-28T23:18:45.376Z,3.28
2023-02-28T23:21:12.111Z,5.75
2023-02-28T23:23:38.846Z,4.25
2023-02-28T23:26:08.734Z,3.80
2023-02-28T23:28:35.507Z,3.40
2023-02-28T23:31:02.664Z,3.97
2023-02-28T23:33:29.405Z,4.50
2023-02-28T23:35:56.525Z,3.95
2023-02-28T23:38:23.859Z,4.03
2023-02-28T23:40:50.662Z,3.50
2023-02-28T23:43:17.399Z,5.72
2023-02-28T23:45:44.211Z,3.72
2023-02-28T23:48:10.948Z,4.07
2023-02-28T23:50:38.008Z,4.70
2023-02-28T23:53:04.761Z,4.40
2023-02-28T23:55:31.567Z,3.47
2023-02-28T23:57:58.292Z,4.15
